Time;durP1;ratioP1;P1;durP2;ratioP2;P2;SDS_P1;SDS_P2;PMS_P1;PMS_P2;Temp;Humidity;BMP_temperature;BMP_pressure;BME280_temperature;BME280_humidity;BME280_pressure;Samples;Min_cycle;Max_cycle;Signal;HPM_P1;HPM_P2
2021/12/22 00:01:31;;;;;;;58.83;27.13;;;;;;;-1.14;79.89;102420.75;5030925;28;20499;-68
2021/12/22 00:03:56;;;;;;;61.58;27.08;;;;;;;-1.12;79.66;102432.13;5033456;28;20037;-69
2021/12/22 00:06:25;;;;;;;55.17;26.98;;;;;;;-1.14;79.49;102423.41;5032971;28;20076;-70
2021/12/22 00:08:50;;;;;;;47.88;25.80;;;;;;;-1.17;79.72;102423.63;5033114;28;20060;-69
2021/12/22 00:11:18;;;;;;;52.55;26.50;;;;;;;-1.17;79.80;102423.63;5033015;28;20025;-71
2021/12/22 00:13:44;;;;;;;59.92;27.48;;;;;;;-1.18;79.50;102424.59;5032960;28;20033;-70
2021/12/22 00:16:09;;;;;;;55.17;27.83;;;;;;;-1.20;79.62;102426.50;5033176;28;20104;-69
2021/12/22 00:18:35;;;;;;;63.10;27.17;;;;;;;-1.20;79.71;102423.84;5032959;28;20124;-70
2021/12/22 00:21:00;;;;;;;54.30;26.25;;;;;;;-1.20;79.83;102427.34;5032985;28;20033;-69
2021/12/22 00:23:26;;;;;;;54.10;26.27;;;;;;;-1.25;79.58;102427.69;5032551;28;20037;-71
2021/12/22 00:25:51;;;;;;;52.10;27.83;;;;;;;-1.26;79.59;102425.13;5032950;28;20028;-71
2021/12/22 00:28:16;;;;;;;51.92;27.33;;;;;;;-1.26;79.71;102420.66;5032688;28;20033;-70
2021/12/22 00:30:43;;;;;;;56.03;27.92;;;;;;;-1.22;80.15;102423.09;5032842;28;20026;-68
2021/12/22 00:33:10;;;;;;;54.78;27.45;;;;;;;-1.23;79.71;102424.06;5032913;28;20057;-69
2021/12/22 00:35:44;;;;;;;47.85;26.05;;;;;;;-1.23;79.91;102418.75;5032350;28;20543;-70
2021/12/22 00:38:13;;;;;;;54.75;26.67;;;;;;;-1.26;80.51;102419.81;5032543;28;20409;-69
2021/12/22 00:40:40;;;;;;;56.97;28.23;;;;;;;-1.29;80.67;102420.88;5032649;28;20083;-70
2021/12/22 00:43:05;;;;;;;52.47;28.00;;;;;;;-1.25;80.09;102421.53;5032579;28;20424;-70
2021/12/22 00:45:33;;;;;;;55.40;28.00;;;;;;;-1.20;80.54;102429.16;5032420;28;20037;-69
2021/12/22 00:47:58;;;;;;;57.88;29.00;;;;;;;-1.23;80.64;102432.03;5032731;28;20033;-69
2021/12/22 00:50:24;;;;;;;53.92;27.45;;;;;;;-1.20;79.86;102430.00;5032395;28;20121;-69
2021/12/22 00:52:50;;;;;;;57.00;28.35;;;;;;;-1.21;80.14;102422.16;5032457;28;20030;-70
2021/12/22 00:55:18;;;;;;;50.20;26.20;;;;;;;-1.20;80.01;102423.84;5030849;28;20029;-69
2021/12/22 00:57:44;;;;;;;48.70;25.52;;;;;;;-1.22;79.46;102417.78;5032319;28;20044;-71
2021/12/22 01:00:10;;;;;;;51.97;28.00;;;;;;;-1.23;80.19;102429.38;5032573;28;20034;-71
2021/12/22 01:02:36;;;;;;;55.03;27.42;;;;;;;-1.26;80.09;102420.66;5030334;28;20033;-70
2021/12/22 01:05:03;;;;;;;49.50;27.45;;;;;;;-1.29;80.50;102422.69;5032295;28;20068;-70
2021/12/22 01:07:28;;;;;;;52.70;26.70;;;;;;;-1.33;79.78;102419.41;5032472;28;20044;-70
2021/12/22 01:09:53;;;;;;;48.03;25.83;;;;;;;-1.35;79.82;102418.66;5032454;28;20025;-68
2021/12/22 01:12:19;;;;;;;52.75;26.00;;;;;;;-1.35;80.29;102421.31;5030775;28;20128;-70
2021/12/22 01:14:44;;;;;;;52.22;27.30;;;;;;;-1.37;79.79;102427.72;5032200;28;20038;-69
2021/12/22 01:17:12;;;;;;;53.70;26.60;;;;;;;-1.36;79.58;102430.25;5032475;28;20034;-70
2021/12/22 01:19:53;;;;;;;54.50;26.20;;;;;;;-1.38;80.46;102420.69;5032189;28;20061;-70
2021/12/22 01:22:35;;;;;;;48.35;25.15;;;;;;;-1.39;80.49;102414.50;5030994;28;20029;-70
2021/12/22 01:25:03;;;;;;;53.85;25.35;;;;;;;-1.38;80.65;102408.25;5030888;28;20038;-68
2021/12/22 01:27:35;;;;;;;48.75;24.90;;;;;;;-1.36;80.22;102418.75;5032079;28;20060;-70
2021/12/22 01:30:07;;;;;;;53.05;26.25;;;;;;;-1.41;80.32;102403.16;5032346;28;20029;-72
2021/12/22 01:32:33;;;;;;;46.70;24.92;;;;;;;-1.42;79.84;102406.75;5031964;28;20519;-72
2021/12/22 01:34:59;;;;;;;51.28;26.55;;;;;;;-1.39;79.89;102403.88;5031984;28;20036;-70
2021/12/22 01:37:25;;;;;;;56.75;26.40;;;;;;;-1.44;80.23;102406.03;5031898;28;20061;-72
2021/12/22 01:39:50;;;;;;;47.95;24.35;;;;;;;-1.45;80.10;102414.94;5031964;28;20461;-72
2021/12/22 01:42:15;;;;;;;45.10;24.45;;;;;;;-1.43;80.15;102416.53;5035411;28;20029;-69
2021/12/22 01:45:11;;;;;;;52.35;25.65;;;;;;;-1.43;80.40;102413.88;5035453;28;20358;-70
2021/12/22 01:50:44;;;;;;;47.58;24.60;;;;;;;-1.37;80.68;102402.00;5035455;28;20107;-70
2021/12/22 01:53:31;;;;;;;49.13;25.65;;;;;;;-1.38;80.35;102400.28;5035816;28;20136;-71
2021/12/22 01:56:20;;;;;;;46.20;24.40;;;;;;;-1.40;80.41;102407.53;5035582;28;20029;-71
2021/12/22 01:58:48;;;;;;;47.40;23.50;;;;;;;-1.45;80.42;102394.56;5035837;28;20030;-69
2021/12/22 02:01:15;;;;;;;47.45;24.88;;;;;;;-1.44;80.59;102403.38;5033426;28;20108;-70
2021/12/22 02:03:43;;;;;;;46.78;23.83;;;;;;;-1.45;80.16;102399.00;5035291;28;20640;-70
2021/12/22 02:06:09;;;;;;;46.97;23.92;;;;;;;-1.51;80.66;102399.44;5033896;28;20395;-69
2021/12/22 02:08:38;;;;;;;52.30;24.48;;;;;;;-1.47;80.91;102407.09;5034021;28;20037;-68
2021/12/22 02:11:05;;;;;;;49.40;24.50;;;;;;;-1.46;80.51;102414.09;5034199;28;20442;-71
2021/12/22 02:13:35;;;;;;;44.17;24.38;;;;;;;-1.45;80.11;102420.25;5034992;28;20638;-71
2021/12/22 02:16:10;;;;;;;51.65;25.10;;;;;;;-1.44;80.13;102421.97;5035537;28;20042;-71
2021/12/22 02:18:38;;;;;;;47.70;24.27;;;;;;;-1.45;80.74;102422.91;5035345;28;20028;-71
2021/12/22 02:21:04;;;;;;;49.30;24.50;;;;;;;-1.43;80.25;102423.66;5034132;28;20033;-71
2021/12/22 02:23:30;;;;;;;43.38;23.00;;;;;;;-1.42;79.77;102414.72;5033427;28;20059;-69
2021/12/22 02:26:01;;;;;;;47.63;24.08;;;;;;;-1.46;80.44;102419.41;5034987;28;20391;-70
2021/12/22 02:28:31;;;;;;;47.80;24.20;;;;;;;-1.43;79.87;102418.34;5035011;28;20461;-68
2021/12/22 02:30:57;;;;;;;46.20;22.50;;;;;;;-1.50;80.49;102411.78;5035092;28;20021;-72
2021/12/22 02:33:34;;;;;;;45.10;23.60;;;;;;;-1.47;80.58;102422.19;5034412;28;20112;-70
2021/12/22 02:38:30;;;;;;;49.45;23.33;;;;;;;-1.50;80.22;102411.78;5027234;28;20128;-71
2021/12/22 02:40:55;;;;;;;43.28;23.40;;;;;;;-1.50;80.02;102417.09;5035083;28;20061;-68
2021/12/22 02:43:21;;;;;;;41.20;21.80;;;;;;;-1.51;80.40;102418.03;5034656;28;20102;-70
2021/12/22 02:45:47;;;;;;;40.78;21.77;;;;;;;-1.49;80.24;102418.78;5034627;28;20065;-69
2021/12/22 02:48:12;;;;;;;47.83;23.08;;;;;;;-1.51;80.36;102415.38;5034851;28;20061;-69
2021/12/22 02:50:40;;;;;;;46.45;22.50;;;;;;;-1.52;79.95;102409.22;5034628;28;20038;-71
2021/12/22 02:53:09;;;;;;;42.65;22.38;;;;;;;-1.55;80.15;102405.94;5033444;28;20389;-70
2021/12/22 02:55:52;;;;;;;43.33;23.02;;;;;;;-1.55;79.98;102408.59;5032973;28;20461;-69
2021/12/22 02:58:38;;;;;;;44.80;21.83;;;;;;;-1.54;79.96;102405.84;5034788;28;20025;-70
2021/12/22 03:06:20;;;;;;;37.95;21.17;;;;;;;-1.56;79.88;102402.41;5034492;28;20029;-71
2021/12/22 03:08:46;;;;;;;41.25;21.00;;;;;;;-1.59;79.33;102404.47;5034308;28;20038;-69
2021/12/22 03:11:11;;;;;;;41.67;22.45;;;;;;;-1.65;79.81;102408.38;5034121;28;20380;-69
2021/12/22 03:13:36;;;;;;;43.03;22.17;;;;;;;-1.63;79.97;102417.06;5033930;28;20032;-69
2021/12/22 03:16:01;;;;;;;40.80;21.45;;;;;;;-1.67;79.88;102415.59;5034102;28;20429;-69
2021/12/22 03:18:27;;;;;;;41.55;21.00;;;;;;;-1.69;80.07;102428.13;5034309;28;20047;-70
2021/12/22 03:21:01;;;;;;;37.72;20.38;;;;;;;-1.68;79.58;102429.81;5033887;28;20401;-70
2021/12/22 03:23:27;;;;;;;39.88;20.80;;;;;;;-1.72;79.23;102434.50;5033957;28;20083;-69
2021/12/22 03:25:53;;;;;;;37.67;20.50;;;;;;;-1.74;79.46;102431.09;5032421;28;20038;-72
2021/12/22 03:28:18;;;;;;;40.38;20.65;;;;;;;-1.74;79.27;102435.56;5034059;28;20068;-73
2021/12/22 03:30:43;;;;;;;39.80;20.75;;;;;;;-1.79;78.53;102434.06;5032388;28;20038;-70
2021/12/22 03:33:09;;;;;;;41.53;20.25;;;;;;;-1.83;79.07;102426.41;5034081;28;20421;-68
2021/12/22 03:35:37;;;;;;;40.10;21.13;;;;;;;-1.84;78.37;102435.31;5033856;28;20044;-69
2021/12/22 03:38:03;;;;;;;42.15;19.85;;;;;;;-1.88;78.92;102431.19;5032411;28;20056;-68
2021/12/22 03:40:28;;;;;;;37.70;19.95;;;;;;;-1.89;78.97;102440.09;5032360;28;20029;-70
2021/12/22 03:42:54;;;;;;;40.13;20.60;;;;;;;-1.92;78.80;102433.19;5032489;28;20602;-69
2021/12/22 03:45:20;;;;;;;41.00;20.33;;;;;;;-1.91;78.77;102429.59;5033235;28;20079;-70
2021/12/22 03:47:46;;;;;;;38.30;20.17;;;;;;;-1.94;78.84;102424.50;5033517;28;20037;-67
2021/12/22 03:50:12;;;;;;;40.85;20.58;;;;;;;-1.91;78.76;102423.44;5033747;28;20451;-66
2021/12/22 03:52:38;;;;;;;41.05;20.42;;;;;;;-1.89;79.39;102416.22;5033215;28;20034;-69
2021/12/22 03:55:05;;;;;;;37.55;20.25;;;;;;;-1.88;79.16;102412.63;5032961;28;20117;-70
2021/12/22 03:57:31;;;;;;;41.70;21.15;;;;;;;-1.90;78.99;102412.72;5033045;28;20033;-69
2021/12/22 03:59:58;;;;;;;36.05;19.63;;;;;;;-1.91;79.01;102410.19;5033162;28;20453;-68
2021/12/22 04:02:25;;;;;;;39.63;19.63;;;;;;;-1.97;79.18;102419.41;5031083;28;20040;-69
2021/12/22 04:04:51;;;;;;;37.88;19.77;;;;;;;-1.92;79.64;102424.41;5030779;28;20230;-68
2021/12/22 04:07:17;;;;;;;36.00;20.05;;;;;;;-1.97;79.65;102420.25;5032048;28;20111;-70
2021/12/22 04:09:42;;;;;;;39.78;19.38;;;;;;;-1.92;79.27;102424.41;5032990;28;20029;-68
2021/12/22 04:12:08;;;;;;;37.63;20.15;;;;;;;-1.90;79.43;102419.81;5032877;28;20068;-66
2021/12/22 04:14:34;;;;;;;36.20;20.17;;;;;;;-1.94;79.23;102413.88;5032716;28;20112;-69
2021/12/22 04:16:59;;;;;;;41.47;19.75;;;;;;;-1.92;79.52;102421.75;5033225;28;20083;-69
2021/12/22 04:19:24;;;;;;;38.28;19.13;;;;;;;-1.91;79.62;102412.84;5033098;28;20099;-69
2021/12/22 04:21:50;;;;;;;35.95;19.15;;;;;;;-1.90;79.57;102414.50;5032892;28;20108;-68
2021/12/22 04:24:17;;;;;;;39.15;19.10;;;;;;;-1.94;79.71;102407.75;5032836;28;20033;-67
2021/12/22 04:26:42;;;;;;;36.88;19.17;;;;;;;-1.91;79.30;102415.50;5032772;28;20033;-67
2021/12/22 04:29:10;;;;;;;40.72;20.20;;;;;;;-1.95;79.94;102404.22;5032973;28;20510;-69
2021/12/22 04:31:35;;;;;;;38.75;19.20;;;;;;;-1.95;79.94;102406.88;5032643;28;20025;-68
2021/12/22 04:34:03;;;;;;;34.88;18.48;;;;;;;-1.97;79.96;102395.53;5032835;28;20056;-68
2021/12/22 04:36:28;;;;;;;39.85;19.55;;;;;;;-1.95;80.14;102393.59;5032330;28;20053;-68
2021/12/22 04:38:56;;;;;;;40.47;19.75;;;;;;;-1.93;80.14;102383.75;5032625;28;20435;-70
2021/12/22 04:41:21;;;;;;;33.83;18.40;;;;;;;-1.96;79.84;102389.28;5032786;28;20065;-69
2021/12/22 04:43:46;;;;;;;41.10;17.75;;;;;;;-1.91;79.92;102396.91;5031859;28;20061;-69
2021/12/22 04:46:11;;;;;;;39.92;18.30;;;;;;;-1.93;80.14;102391.72;5032744;28;20067;-67
2021/12/22 04:48:37;;;;;;;31.05;17.90;;;;;;;-1.95;79.70;102390.94;5032487;28;20051;-69
2021/12/22 04:51:12;;;;;;;36.50;17.95;;;;;;;-1.94;80.05;102392.66;5031362;28;20025;-68
2021/12/22 04:53:47;;;;;;;33.30;17.40;;;;;;;-1.96;79.67;102394.59;5032335;28;20041;-67
2021/12/22 04:56:13;;;;;;;34.58;17.38;;;;;;;-1.96;80.05;102395.41;5032616;28;20062;-69
2021/12/22 04:58:38;;;;;;;34.85;18.02;;;;;;;-1.94;79.60;102392.66;5032414;28;20393;-69
2021/12/22 05:01:03;;;;;;;37.17;18.17;;;;;;;-1.98;80.18;102392.03;5030009;28;20116;-70
2021/12/22 05:03:28;;;;;;;38.72;17.88;;;;;;;-1.94;80.28;102392.66;5032591;28;20041;-68
2021/12/22 05:05:54;;;;;;;34.28;16.85;;;;;;;-1.92;80.11;102387.25;5032602;28;20110;-66
2021/12/22 05:08:19;;;;;;;37.78;17.60;;;;;;;-1.92;79.68;102384.59;5032449;28;20033;-67
2021/12/22 05:10:44;;;;;;;34.50;17.98;;;;;;;-1.94;79.44;102381.22;5032289;28;20022;-67
2021/12/22 05:13:09;;;;;;;28.52;16.55;;;;;;;-1.98;79.47;102376.13;5032124;28;20748;-67
2021/12/22 05:15:39;;;;;;;31.40;17.23;;;;;;;-1.97;79.54;102375.13;5032744;28;20025;-68
2021/12/22 05:18:21;;;;;;;29.20;16.55;;;;;;;-2.02;79.72;102373.78;5036224;28;20476;-67
2021/12/22 05:20:46;;;;;;;36.83;17.83;;;;;;;-2.03;79.88;102377.38;5036345;28;20076;-67
2021/12/22 05:23:12;;;;;;;34.13;16.73;;;;;;;-2.06;79.84;102373.13;5036227;28;20033;-69
2021/12/22 05:25:37;;;;;;;27.90;16.23;;;;;;;-2.02;79.84;102379.91;5034555;28;20031;-68
2021/12/22 05:28:03;;;;;;;31.73;16.60;;;;;;;-2.02;80.30;102381.75;5036373;28;20116;-69
2021/12/22 05:30:28;;;;;;;28.40;15.68;;;;;;;-2.05;79.67;102379.28;5036354;28;20109;-67
2021/12/22 05:32:55;;;;;;;29.80;16.15;;;;;;;-2.08;80.14;102380.34;5035957;28;20057;-69
2021/12/22 05:35:21;;;;;;;30.67;16.70;;;;;;;-2.08;79.98;102380.34;5035961;28;20037;-69
2021/12/22 05:37:46;;;;;;;30.95;16.00;;;;;;;-2.07;80.12;102386.50;5035968;28;20046;-69
2021/12/22 05:40:12;;;;;;;30.25;15.82;;;;;;;-2.08;79.89;102380.34;5036095;28;20124;-68
2021/12/22 05:42:37;;;;;;;32.13;15.43;;;;;;;-2.05;80.24;102371.34;5036113;28;20041;-69
2021/12/22 05:45:04;;;;;;;29.33;15.95;;;;;;;-2.07;79.76;102362.63;5035359;28;20021;-67
2021/12/22 05:47:29;;;;;;;29.55;15.55;;;;;;;-2.10;79.44;102365.47;5036064;28;20108;-68
2021/12/22 05:49:54;;;;;;;29.85;15.32;;;;;;;-2.10;79.89;102361.00;5035845;28;20071;-70
2021/12/22 05:52:20;;;;;;;27.55;15.65;;;;;;;-2.16;79.26;102350.81;5035583;28;20033;-69
2021/12/22 05:54:49;;;;;;;26.27;14.93;;;;;;;-2.14;79.67;102357.72;5035366;28;20040;-67
2021/12/22 05:57:14;;;;;;;28.98;14.60;;;;;;;-2.12;79.63;102362.09;5035833;28;20522;-67
2021/12/22 05:59:39;;;;;;;26.52;14.43;;;;;;;-2.14;79.79;102359.53;5035840;28;20040;-70
2021/12/22 06:02:05;;;;;;;26.40;14.82;;;;;;;-2.15;79.50;102355.19;5032842;28;20041;-67
2021/12/22 06:04:30;;;;;;;29.42;15.20;;;;;;;-2.15;79.39;102350.72;5035707;28;20126;-68
2021/12/22 06:06:55;;;;;;;29.63;15.02;;;;;;;-2.16;79.49;102353.47;5035165;28;20026;-68
2021/12/22 06:09:21;;;;;;;28.38;14.90;;;;;;;-2.14;79.64;102352.44;5035684;28;20029;-67
2021/12/22 06:11:46;;;;;;;28.13;14.88;;;;;;;-2.18;79.82;102352.75;5035006;28;20032;-70
2021/12/22 06:14:11;;;;;;;30.42;15.80;;;;;;;-2.17;79.83;102363.25;5035197;28;20080;-68
2021/12/22 06:16:36;;;;;;;27.30;15.05;;;;;;;-2.19;79.83;102367.81;5035549;28;20346;-70
2021/12/22 06:19:05;;;;;;;26.55;15.75;;;;;;;-2.20;79.90;102359.97;5035420;28;20029;-69
2021/12/22 06:21:31;;;;;;;32.67;15.95;;;;;;;-2.19;79.77;102372.25;5035107;28;20033;-69
2021/12/22 06:23:57;;;;;;;27.85;15.05;;;;;;;-2.21;79.82;102360.91;5035137;28;20037;-66
2021/12/22 06:26:22;;;;;;;32.10;15.13;;;;;;;-2.19;79.29;102366.94;5035145;28;20056;-69
2021/12/22 06:28:47;;;;;;;27.52;16.08;;;;;;;-2.24;79.12;102364.59;5035299;28;20029;-68
2021/12/22 06:31:13;;;;;;;32.47;16.02;;;;;;;-2.23;79.61;102368.97;5034678;28;20029;-68
2021/12/22 06:33:39;;;;;;;28.77;16.10;;;;;;;-2.22;79.92;102356.53;5034928;28;20026;-68
2021/12/22 06:36:04;;;;;;;32.00;16.83;;;;;;;-2.24;79.80;102361.97;5035093;28;20037;-69
2021/12/22 06:38:30;;;;;;;32.67;16.60;;;;;;;-2.24;79.65;102358.47;5035093;28;20040;-68
2021/12/22 06:40:55;;;;;;;28.15;14.82;;;;;;;-2.25;80.02;102364.72;5034551;28;20034;-68
2021/12/22 06:43:21;;;;;;;31.75;15.82;;;;;;;-2.23;79.89;102368.13;5034903;28;20038;-69
2021/12/22 06:45:46;;;;;;;33.05;15.30;;;;;;;-2.25;79.63;102367.38;5034738;28;20053;-69
2021/12/22 06:48:11;;;;;;;31.00;16.52;;;;;;;-2.24;79.75;102374.38;5034994;28;20053;-67
2021/12/22 06:50:37;;;;;;;29.65;14.60;;;;;;;-2.28;79.56;102368.44;5034142;28;20037;-67
2021/12/22 06:53:02;;;;;;;27.60;14.43;;;;;;;-2.27;79.27;102370.13;5034725;28;20029;-67
2021/12/22 06:55:28;;;;;;;30.70;14.75;;;;;;;-2.29;80.03;102360.56;5034787;28;20034;-70
2021/12/22 06:57:54;;;;;;;22.80;13.15;;;;;;;-2.27;79.82;102371.94;5034519;28;20107;-70
2021/12/22 07:00:19;;;;;;;26.00;14.38;;;;;;;-2.30;80.11;102372.97;5033185;28;20025;-67
2021/12/22 07:02:45;;;;;;;27.13;14.02;;;;;;;-2.30;79.74;102378.28;5032188;28;20167;-68
2021/12/22 07:05:11;;;;;;;24.33;13.90;;;;;;;-2.30;79.61;102372.13;5034575;28;20041;-69
2021/12/22 07:07:38;;;;;;;30.10;14.73;;;;;;;-2.29;79.61;102381.78;5034458;28;20503;-68
2021/12/22 07:10:07;;;;;;;25.38;13.95;;;;;;;-2.30;80.14;102378.28;5033862;28;20112;-68
2021/12/22 07:12:33;;;;;;;28.50;14.07;;;;;;;-2.32;80.07;102381.03;5034334;28;20037;-68
2021/12/22 07:14:58;;;;;;;27.55;14.65;;;;;;;-2.32;80.09;102365.13;5034131;28;20034;-67
2021/12/22 07:17:23;;;;;;;26.80;13.93;;;;;;;-2.32;79.83;102367.78;5034511;28;20033;-68
2021/12/22 07:19:50;;;;;;;28.63;13.85;;;;;;;-2.30;80.30;102365.03;5034050;28;20107;-67
2021/12/22 07:22:15;;;;;;;25.55;13.23;;;;;;;-2.29;79.97;102365.88;5034235;28;20087;-67
2021/12/22 07:24:40;;;;;;;27.17;13.90;;;;;;;-2.30;80.48;102362.38;5033998;28;20476;-68
2021/12/22 07:27:06;;;;;;;25.98;13.82;;;;;;;-2.35;79.89;102357.38;5033867;28;20420;-68
2021/12/22 07:29:31;;;;;;;25.15;13.68;;;;;;;-2.36;79.67;102360.97;5034122;28;20108;-67
2021/12/22 07:31:56;;;;;;;25.38;14.13;;;;;;;-2.36;79.95;102374.22;5033542;28;20370;-67
2021/12/22 07:34:27;;;;;;;26.40;14.07;;;;;;;-2.36;79.52;102371.56;5033728;28;20035;-67
2021/12/22 07:37:03;;;;;;;27.05;13.73;;;;;;;-2.37;80.32;102369.91;5033593;28;20481;-67
2021/12/22 07:39:29;;;;;;;25.70;13.70;;;;;;;-2.38;79.87;102370.00;5033206;28;20038;-69
2021/12/22 07:41:54;;;;;;;26.00;12.73;;;;;;;-2.37;80.12;102364.59;5032224;28;20380;-68
2021/12/22 07:44:19;;;;;;;26.67;13.85;;;;;;;-2.35;79.75;102364.50;5032453;28;20037;-67
2021/12/22 07:46:45;;;;;;;25.75;13.93;;;;;;;-2.40;80.00;102355.97;5033355;28;20079;-67
2021/12/22 07:49:10;;;;;;;28.65;15.13;;;;;;;-2.34;80.10;102367.03;5033477;28;20090;-69
2021/12/22 07:51:35;;;;;;;24.88;13.45;;;;;;;-2.34;79.82;102358.22;5033495;28;20034;-69
2021/12/22 07:54:01;;;;;;;24.23;13.50;;;;;;;-2.35;80.06;102353.88;5033338;28;20032;-68
2021/12/22 07:56:26;;;;;;;24.35;12.63;;;;;;;-2.34;79.93;102356.44;5033323;28;20071;-69
2021/12/22 07:58:54;;;;;;;28.63;13.30;;;;;;;-2.35;80.13;102360.03;5033528;28;20108;-68
2021/12/22 08:01:19;;;;;;;27.08;14.25;;;;;;;-2.32;79.84;102359.81;5030856;28;20080;-67
2021/12/22 08:03:44;;;;;;;28.23;13.80;;;;;;;-2.31;79.72;102355.34;5033196;28;20473;-69
2021/12/22 08:06:10;;;;;;;32.67;18.73;;;;;;;-2.29;80.64;102360.56;5032028;28;20037;-67
2021/12/22 08:08:35;;;;;;;33.50;21.70;;;;;;;-2.32;80.39;102356.34;5033356;28;20393;-68
2021/12/22 08:11:00;;;;;;;29.63;16.80;;;;;;;-2.23;80.35;102354.88;5033032;28;20382;-67
2021/12/22 08:13:25;;;;;;;27.08;14.13;;;;;;;-2.24;79.95;102364.59;5033220;28;20032;-68
2021/12/22 08:15:51;;;;;;;22.00;12.75;;;;;;;-2.21;79.93;102359.09;5031385;28;20055;-69
2021/12/22 08:18:16;;;;;;;27.10;13.38;;;;;;;-2.20;80.66;102359.97;5033235;28;20036;-68
2021/12/22 08:20:41;;;;;;;26.65;12.57;;;;;;;-2.16;80.34;102359.66;5033170;28;20025;-68
2021/12/22 08:23:07;;;;;;;22.55;12.10;;;;;;;-2.15;80.97;102357.84;5032847;28;20081;-67
2021/12/22 08:25:32;;;;;;;24.40;12.10;;;;;;;-2.14;80.45;102351.59;5033074;28;20065;-69
2021/12/22 08:27:57;;;;;;;22.67;11.57;;;;;;;-2.09;80.74;102357.41;5032824;28;20022;-70
2021/12/22 08:30:23;;;;;;;28.13;14.55;;;;;;;-2.07;81.03;102359.97;5032676;28;20124;-70
2021/12/22 08:32:48;;;;;;;25.63;12.40;;;;;;;-2.08;80.19;102359.13;5032748;28;20112;-70
2021/12/22 08:35:16;;;;;;;25.52;12.85;;;;;;;-2.04;80.36;102367.72;5033174;28;20026;-69
2021/12/22 08:40:26;;;;;;;23.20;12.63;;;;;;;-2.03;80.80;102362.28;5032649;28;20048;-69
2021/12/22 08:42:52;;;;;;;25.17;12.10;;;;;;;-1.99;80.31;102361.13;5032614;28;20029;-70
2021/12/22 08:45:18;;;;;;;21.00;11.43;;;;;;;-1.96;80.37;102358.28;5032490;28;20037;-69
2021/12/22 08:47:45;;;;;;;21.70;11.35;;;;;;;-1.96;80.47;102358.28;5032392;28;20029;-71
2021/12/22 08:50:12;;;;;;;25.60;12.65;;;;;;;-1.90;80.30;102353.50;5019705;28;20340;-68
2021/12/22 08:52:37;;;;;;;26.40;11.95;;;;;;;-1.87;80.58;102358.59;5020973;28;20037;-68
2021/12/22 08:55:03;;;;;;;22.83;11.90;;;;;;;-1.85;81.08;102354.03;5020194;28;20449;-69
2021/12/22 08:57:29;;;;;;;21.05;11.02;;;;;;;-1.84;80.33;102363.66;5017514;28;20439;-72
2021/12/22 08:59:54;;;;;;;20.63;11.57;;;;;;;-1.82;80.30;102359.13;5029487;28;20025;-69
2021/12/22 09:02:20;;;;;;;21.80;11.45;;;;;;;-1.79;81.08;102369.53;5029815;28;20037;-70
2021/12/22 09:04:45;;;;;;;24.40;12.75;;;;;;;-1.79;80.47;102357.09;5031825;28;20060;-71
2021/12/22 09:07:11;;;;;;;19.92;12.13;;;;;;;-1.71;81.00;102361.88;5032545;28;20453;-71
2021/12/22 09:09:38;;;;;;;23.65;12.57;;;;;;;-1.70;81.02;102352.97;5032274;28;20114;-71
2021/12/22 09:12:05;;;;;;;26.27;13.30;;;;;;;-1.69;80.90;102357.31;5032209;28;20037;-72
2021/12/22 09:14:30;;;;;;;26.17;12.52;;;;;;;-1.64;81.31;102355.19;5032342;28;20065;-70
2021/12/22 09:16:56;;;;;;;22.80;12.07;;;;;;;-1.63;81.34;102356.88;5031616;28;20107;-70
2021/12/22 09:19:23;;;;;;;21.90;11.32;;;;;;;-1.57;80.43;102349.44;5032374;28;20376;-69
2021/12/22 09:21:48;;;;;;;25.38;11.75;;;;;;;-1.53;81.28;102348.28;5032158;28;20052;-71
2021/12/22 09:24:14;;;;;;;28.42;12.32;;;;;;;-1.52;80.73;102349.97;5031851;28;20503;-73
2021/12/22 09:26:40;;;;;;;23.73;11.80;;;;;;;-1.47;80.72;102356.63;5032086;28;20065;-70
2021/12/22 09:29:06;;;;;;;23.73;11.93;;;;;;;-1.43;80.74;102355.47;5032052;28;20038;-71
2021/12/22 09:31:32;;;;;;;26.80;12.20;;;;;;;-1.40;81.01;102354.41;5032075;28;20036;-73
2021/12/22 09:33:58;;;;;;;29.58;11.85;;;;;;;-1.36;80.74;102349.72;5031866;28;20025;-72
2021/12/22 09:36:23;;;;;;;25.08;12.43;;;;;;;-1.32;81.12;102352.03;5031552;28;20085;-73
2021/12/22 09:38:49;;;;;;;28.52;12.32;;;;;;;-1.26;80.56;102351.59;5031706;28;20029;-69
2021/12/22 09:41:15;;;;;;;29.48;13.15;;;;;;;-1.25;81.24;102342.69;5031848;28;20057;-71
2021/12/22 09:43:42;;;;;;;27.65;13.40;;;;;;;-1.18;80.89;102342.25;5032206;28;20433;-71
2021/12/22 09:46:12;;;;;;;25.60;13.07;;;;;;;-1.14;80.46;102344.56;5024902;28;20561;-70
2021/12/22 09:53:40;;;;;;;24.60;12.13;;;;;;;-1.01;80.41;102339.22;5012114;28;20462;-70
2021/12/22 09:56:06;;;;;;;21.85;11.52;;;;;;;-0.95;80.89;102336.09;5020297;28;20033;-70
2021/12/22 09:58:32;;;;;;;22.70;12.45;;;;;;;-0.93;80.54;102344.81;5027517;28;20084;-70
2021/12/22 10:00:58;;;;;;;22.92;11.80;;;;;;;-0.85;80.47;102351.38;5028818;28;20385;-71
2021/12/22 10:03:25;;;;;;;25.88;12.00;;;;;;;-0.81;80.47;102351.03;5035227;28;20041;-76
2021/12/22 10:05:51;;;;;;;21.25;11.70;;;;;;;-0.79;80.80;102345.59;5034005;28;20033;-71
2021/12/22 10:08:20;;;;;;;19.45;11.73;;;;;;;-0.71;80.18;102348.53;5035217;28;20033;-73
2021/12/22 10:11:02;;;;;;;20.83;11.45;;;;;;;-0.68;80.58;102328.84;5035467;28;20102;-71
2021/12/22 10:13:29;;;;;;;24.13;12.90;;;;;;;-0.64;80.38;102336.47;5035214;28;20032;-69
2021/12/22 10:15:55;;;;;;;22.67;12.10;;;;;;;-0.59;80.08;102341.44;5034830;28;20096;-73
2021/12/22 10:18:23;;;;;;;24.88;11.55;;;;;;;-0.58;80.14;102336.00;5034890;28;20025;-73
2021/12/22 10:20:52;;;;;;;33.17;15.95;;;;;;;-0.55;80.13;102330.47;5033833;28;20029;-74
2021/12/22 10:23:22;;;;;;;23.90;12.65;;;;;;;-0.46;81.56;102326.28;5033962;28;20385;-75
2021/12/22 10:25:51;;;;;;;32.08;15.65;;;;;;;-0.40;80.45;102330.28;5034862;28;20032;-73
2021/12/22 10:28:19;;;;;;;27.88;14.48;;;;;;;-0.41;80.02;102320.59;5035294;28;20033;-71
2021/12/22 10:30:45;;;;;;;42.55;18.33;;;;;;;-0.39;79.74;102322.19;5035243;28;20033;-73
2021/12/22 10:33:14;;;;;;;51.50;19.58;;;;;;;-0.32;79.63;102327.03;5031012;28;20033;-69
2021/12/22 10:35:42;;;;;;;78.75;26.38;;;;;;;-0.30;80.09;102320.66;5035053;28;20043;-75
2021/12/22 10:38:10;;;;;;;44.75;21.63;;;;;;;-0.28;79.89;102316.03;5033401;28;20132;-75
2021/12/22 10:40:47;;;;;;;27.92;15.68;;;;;;;-0.22;79.28;102318.22;5035044;28;20467;-72
2021/12/22 10:43:25;;;;;;;26.17;12.77;;;;;;;-0.17;79.16;102312.56;5034774;28;20052;-73
2021/12/22 10:45:56;;;;;;;20.52;12.55;;;;;;;-0.15;79.66;102310.63;5034644;28;20037;-73
2021/12/22 10:51:10;;;;;;;24.23;12.38;;;;;;;0.00;79.88;102303.28;5034360;28;20047;-70
2021/12/22 10:53:44;;;;;;;16.42;11.35;;;;;;;0.06;79.12;102292.16;5034505;28;20139;-73
2021/12/22 10:56:20;;;;;;;23.15;11.40;;;;;;;0.11;79.19;102291.78;5034539;28;20025;-71
2021/12/22 10:58:46;;;;;;;20.27;10.65;;;;;;;0.14;78.98;102279.06;5034182;28;20033;-70
2021/12/22 11:01:13;;;;;;;18.67;11.55;;;;;;;0.20;78.65;102290.19;5032191;28;20037;-71
2021/12/22 11:03:45;;;;;;;18.17;11.25;;;;;;;0.21;80.02;102283.91;5034312;28;20025;-72
2021/12/22 11:06:16;;;;;;;20.75;10.85;;;;;;;0.27;79.25;102286.09;5034306;28;20376;-72
2021/12/22 11:08:52;;;;;;;18.92;10.80;;;;;;;0.33;79.00;102277.59;5034548;28;20029;-72
2021/12/22 11:11:17;;;;;;;19.58;10.63;;;;;;;0.33;79.50;102272.28;5030581;28;20072;-71
2021/12/22 11:13:43;;;;;;;19.65;11.27;;;;;;;0.37;78.96;102276.41;5028894;28;20463;-70
2021/12/22 11:16:13;;;;;;;17.65;11.77;;;;;;;0.43;78.93;102280.41;5034190;28;20079;-73
2021/12/22 11:18:38;;;;;;;18.27;11.05;;;;;;;0.47;79.62;102274.69;5029914;28;20385;-71
2021/12/22 11:21:23;;;;;;;17.23;10.80;;;;;;;0.48;78.71;102267.53;5034430;28;20037;-72
2021/12/22 11:23:48;;;;;;;17.98;11.10;;;;;;;0.56;78.45;102277.56;5024692;28;20030;-72
2021/12/22 11:26:14;;;;;;;21.70;12.10;;;;;;;0.62;78.96;102274.41;5012912;28;20036;-72
2021/12/22 11:28:41;;;;;;;20.08;11.68;;;;;;;0.62;78.22;102261.97;5014365;28;20060;-72
2021/12/22 11:31:07;;;;;;;20.48;11.02;;;;;;;0.65;78.55;102268.84;5014012;28;20105;-74